createdAt,value
2024-01-15T00:01:46.801Z,8.50
2024-01-15T00:04:14.646Z,9.20
2024-01-15T00:06:42.493Z,8.57
2024-01-15T00:09:11.327Z,8.30
2024-01-15T00:11:38.904Z,8.80
2024-01-15T00:14:06.404Z,8.57
2024-01-15T00:16:33.938Z,7.97
2024-01-15T00:19:01.866Z,8.10
2024-01-15T00:21:29.542Z,8.27
2024-01-15T00:23:57.065Z,8.30
2024-01-15T00:26:24.682Z,8.93
2024-01-15T00:28:52.320Z,7.87
2024-01-15T00:31:20.199Z,7.80
2024-01-15T00:33:47.918Z,8.10
2024-01-15T00:36:16.296Z,7.80
2024-01-15T00:38:45.593Z,7.77
2024-01-15T00:41:13.156Z,8.20
2024-01-15T00:43:40.744Z,8.03
2024-01-15T00:46:08.367Z,8.00
2024-01-15T00:48:35.965Z,7.97
2024-01-15T00:51:03.896Z,8.23
2024-01-15T00:53:31.477Z,7.93
2024-01-15T00:55:59.244Z,7.47
2024-01-15T00:58:28.100Z,7.50
2024-01-15T01:00:56.463Z,8.10
2024-01-15T01:03:24.208Z,7.43
2024-01-15T01:05:52.144Z,7.70
2024-01-15T01:08:19.782Z,8.00
2024-01-15T01:10:47.250Z,7.17
2024-01-15T01:13:14.826Z,7.50
2024-01-15T01:15:42.476Z,7.17
2024-01-15T01:18:10.246Z,7.40
2024-01-15T01:20:37.972Z,7.10
2024-01-15T01:23:06.346Z,6.87
2024-01-15T01:25:33.983Z,7.20
2024-01-15T01:28:01.519Z,7.13
2024-01-15T01:30:29.129Z,7.07
2024-01-15T01:32:56.664Z,7.50
2024-01-15T01:35:24.677Z,7.20
2024-01-15T01:37:53.489Z,6.90
2024-01-15T01:40:21.734Z,7.13
2024-01-15T01:42:50.380Z,7.27
2024-01-15T01:45:18.127Z,7.10
2024-01-15T01:47:45.700Z,6.43
2024-01-15T01:50:15.488Z,6.33
2024-01-15T01:52:43.608Z,7.20
2024-01-15T01:55:11.979Z,6.83
2024-01-15T01:57:40.114Z,6.57
2024-01-15T02:00:09.188Z,6.30
2024-01-15T02:02:36.810Z,6.30
2024-01-15T02:05:06.588Z,7.10
2024-01-15T02:07:37.323Z,7.47
2024-01-15T02:10:05.427Z,8.07
2024-01-15T02:12:33.289Z,8.43
2024-01-15T02:15:00.925Z,8.43
2024-01-15T02:17:28.471Z,8.77
2024-01-15T02:19:56.568Z,8.67
2024-01-15T02:22:24.216Z,8.60
2024-01-15T02:24:51.766Z,8.93
2024-01-15T02:27:20.643Z,9.60
2024-01-15T02:29:49.179Z,9.10
2024-01-15T02:32:16.686Z,9.57
2024-01-15T02:34:44.658Z,9.73
2024-01-15T02:37:12.327Z,9.40
2024-01-15T02:39:39.837Z,9.03
2024-01-15T02:42:07.611Z,9.17
2024-01-15T02:44:35.328Z,9.23
2024-01-15T02:47:02.888Z,10.23
2024-01-15T02:49:30.734Z,9.97
2024-01-15T02:51:58.448Z,10.20
2024-01-15T02:54:25.995Z,10.43
2024-01-15T02:56:53.862Z,9.90
2024-01-15T02:59:21.432Z,8.47
2024-01-15T03:01:49.010Z,7.77
2024-01-15T03:04:16.707Z,8.70
2024-01-15T03:06:44.310Z,9.23
2024-01-15T03:09:11.856Z,8.37
2024-01-15T03:11:42.572Z,8.73
2024-01-15T03:14:10.073Z,9.20
2024-01-15T03:16:37.602Z,8.77
2024-01-15T03:19:05.214Z,8.13
2024-01-15T03:21:32.811Z,9.07
2024-01-15T03:24:00.344Z,8.20
2024-01-15T03:26:27.818Z,7.63
2024-01-15T03:28:55.377Z,8.10
2024-01-15T03:31:23.047Z,7.87
2024-01-15T03:33:50.718Z,6.70
2024-01-15T03:36:18.280Z,7.03
2024-01-15T03:38:46.420Z,7.00
2024-01-15T03:41:13.988Z,6.83
2024-01-15T03:43:41.512Z,7.17
2024-01-15T03:46:09.348Z,6.47
2024-01-15T03:48:37.020Z,6.40
2024-01-15T03:51:05.316Z,6.27
2024-01-15T03:53:32.886Z,6.20
2024-01-15T03:56:00.692Z,6.27
2024-01-15T03:58:28.208Z,6.20
2024-01-15T04:00:55.817Z,6.00
2024-01-15T04:03:23.543Z,5.77
2024-01-15T04:05:51.168Z,6.17
2024-01-15T04:08:18.736Z,5.40
2024-01-15T04:10:46.294Z,6.03
2024-01-15T04:13:13.968Z,5.23
2024-01-15T04:15:41.559Z,5.77
2024-01-15T04:18:10.264Z,5.30
2024-01-15T04:20:37.845Z,6.30
2024-01-15T04:23:06.081Z,6.03
2024-01-15T04:25:33.703Z,6.47
2024-01-15T04:28:01.186Z,5.90
2024-01-15T04:30:28.865Z,5.73
2024-01-15T04:32:56.425Z,6.00
2024-01-15T04:35:24.275Z,6.33
2024-01-15T04:37:51.720Z,5.63
2024-01-15T04:40:19.370Z,5.10
2024-01-15T04:42:47.313Z,4.37
2024-01-15T04:45:14.990Z,4.23
2024-01-15T04:47:43.683Z,4.00
2024-01-15T04:50:11.220Z,3.70
2024-01-15T04:52:38.796Z,3.77
2024-01-15T04:55:06.716Z,3.77
2024-01-15T04:57:34.313Z,3.90
2024-01-15T05:00:01.864Z,3.73
2024-01-15T05:02:29.551Z,3.80
2024-01-15T05:04:57.130Z,4.03
2024-01-15T05:07:24.652Z,4.10
2024-01-15T05:09:52.237Z,3.63
2024-01-15T05:12:19.894Z,3.70
2024-01-15T05:14:47.500Z,4.40
2024-01-15T05:17:15.162Z,4.17
2024-01-15T05:19:42.818Z,4.30
2024-01-15T05:22:10.394Z,3.87
2024-01-15T05:24:37.899Z,4.50
2024-01-15T05:27:05.726Z,4.40
2024-01-15T05:29:33.271Z,4.73
2024-01-15T05:32:02.732Z,4.80
2024-01-15T05:34:30.624Z,5.10
2024-01-15T05:36:58.385Z,5.10
2024-01-15T05:39:26.062Z,5.40
2024-01-15T05:41:53.706Z,5.47
2024-01-15T05:44:21.239Z,5.67
2024-01-15T05:46:48.771Z,5.93
2024-01-15T05:49:16.518Z,5.60
2024-01-15T05:51:44.174Z,6.37
2024-01-15T05:54:11.899Z,6.10
2024-01-15T05:56:39.506Z,5.90
2024-01-15T05:59:07.025Z,5.20
2024-01-15T06:01:34.704Z,4.93
2024-01-15T06:04:02.617Z,5.80
2024-01-15T06:06:30.333Z,5.53
2024-01-15T06:09:00.784Z,5.20
2024-01-15T06:11:34.906Z,6.03
2024-01-15T06:14:02.395Z,5.73
2024-01-15T06:16:30.550Z,5.30
2024-01-15T06:18:58.993Z,5.43
2024-01-15T06:21:26.784Z,4.80
2024-01-15T06:23:54.544Z,5.23
2024-01-15T06:26:22.034Z,5.13
2024-01-15T06:28:49.937Z,5.50
2024-01-15T06:31:17.666Z,5.47
2024-01-15T06:33:48.605Z,6.20
2024-01-15T06:36:17.649Z,5.80
2024-01-15T06:38:46.041Z,5.70
2024-01-15T06:41:13.657Z,5.57
2024-01-15T06:43:41.542Z,5.53
2024-01-15T06:46:09.403Z,6.10
2024-01-15T06:48:37.303Z,5.33
2024-01-15T06:51:05.450Z,5.47
2024-01-15T06:53:32.974Z,5.70
2024-01-15T06:56:00.465Z,5.73
2024-01-15T06:58:28.011Z,4.97
2024-01-15T07:00:55.754Z,5.50
2024-01-15T07:03:23.894Z,5.63
2024-01-15T07:05:51.436Z,5.10
2024-01-15T07:08:18.967Z,6.13
2024-01-15T07:10:46.428Z,5.40
2024-01-15T07:13:13.937Z,5.77
2024-01-15T07:15:41.624Z,5.33
2024-01-15T07:18:09.202Z,6.30
2024-01-15T07:20:36.772Z,5.50
2024-01-15T07:23:05.384Z,5.20
2024-01-15T07:25:32.965Z,5.23
2024-01-15T07:28:00.639Z,5.50
2024-01-15T07:30:28.564Z,5.43
2024-01-15T07:32:56.318Z,5.60
2024-01-15T07:35:23.909Z,5.20
2024-01-15T07:37:51.519Z,5.50
2024-01-15T07:40:19.164Z,5.20
2024-01-15T07:42:46.864Z,4.97
2024-01-15T07:45:14.538Z,5.63
2024-01-15T07:47:42.139Z,5.67
2024-01-15T07:50:10.132Z,5.33
2024-01-15T07:52:37.790Z,5.57
2024-01-15T07:55:06.632Z,5.90
2024-01-15T07:57:34.191Z,4.80
2024-01-15T08:00:03.102Z,5.57
2024-01-15T08:02:32.728Z,4.63
2024-01-15T08:05:02.449Z,5.03
2024-01-15T08:07:30.031Z,5.10
2024-01-15T08:09:57.655Z,4.33
2024-01-15T08:12:25.318Z,4.40
2024-01-15T08:14:52.876Z,4.20
2024-01-15T08:17:20.434Z,4.13
2024-01-15T08:19:48.168Z,3.90
2024-01-15T08:22:15.920Z,4.20
2024-01-15T08:24:43.503Z,4.50
2024-01-15T08:27:11.217Z,4.70
2024-01-15T08:29:38.865Z,3.97
2024-01-15T08:32:06.839Z,4.20
2024-01-15T08:34:34.543Z,4.20
2024-01-15T08:37:02.166Z,4.00
2024-01-15T08:39:29.791Z,3.73
2024-01-15T08:41:57.313Z,4.00
2024-01-15T08:44:24.822Z,3.80
2024-01-15T08:46:52.425Z,4.20
2024-01-15T08:49:20.059Z,4.10
2024-01-15T08:51:47.705Z,3.87
2024-01-15T08:54:15.547Z,3.67
2024-01-15T08:56:43.244Z,3.90
2024-01-15T08:59:12.536Z,3.90
2024-01-15T09:01:41.219Z,3.90
2024-01-15T09:04:09.007Z,4.53
2024-01-15T09:06:36.588Z,3.73
2024-01-15T09:09:04.334Z,4.20
2024-01-15T09:11:32.894Z,4.10
2024-01-15T09:14:00.685Z,4.10
2024-01-15T09:16:28.310Z,3.80
2024-01-15T09:18:58.393Z,4.00
2024-01-15T09:21:25.936Z,3.97
2024-01-15T09:23:53.463Z,4.00
2024-01-15T09:26:21.005Z,3.70
2024-01-15T09:28:48.521Z,3.97
2024-01-15T09:31:16.293Z,4.20
2024-01-15T09:33:44.052Z,3.90
2024-01-15T09:36:11.777Z,4.17
2024-01-15T09:38:41.798Z,4.00
2024-01-15T09:41:09.462Z,4.27
2024-01-15T09:43:38.942Z,4.03
2024-01-15T09:46:06.654Z,3.90
2024-01-15T09:48:38.021Z,4.03
2024-01-15T09:51:08.680Z,4.03
2024-01-15T09:53:38.693Z,3.77
2024-01-15T09:56:07.075Z,3.97
2024-01-15T09:58:36.146Z,3.90
2024-01-15T10:01:08.379Z,3.90
2024-01-15T10:03:36.591Z,3.90
2024-01-15T10:06:05.219Z,3.40
2024-01-15T10:08:34.023Z,3.53
2024-01-15T10:11:01.507Z,3.73
2024-01-15T10:13:29.829Z,3.17
2024-01-15T10:15:57.560Z,3.93
2024-01-15T10:18:25.277Z,4.00
2024-01-15T10:20:52.984Z,3.80
2024-01-15T10:23:20.940Z,3.67
2024-01-15T10:25:48.555Z,3.77
2024-01-15T10:28:16.148Z,4.13
2024-01-15T10:30:43.776Z,3.50
2024-01-15T10:33:11.757Z,3.70
2024-01-15T10:35:39.921Z,3.80
2024-01-15T10:38:07.614Z,3.90
2024-01-15T10:40:35.086Z,4.00
2024-01-15T10:43:02.707Z,4.00
2024-01-15T10:45:30.731Z,4.03
2024-01-15T10:48:03.962Z,3.80
2024-01-15T10:50:32.600Z,4.27
2024-01-15T10:53:00.350Z,3.70
2024-01-15T10:55:29.169Z,3.77
2024-01-15T10:57:58.131Z,4.10
2024-01-15T11:00:26.692Z,4.23
2024-01-15T11:02:57.416Z,3.70
2024-01-15T11:05:25.101Z,4.13
2024-01-15T11:07:56.669Z,3.30
2024-01-15T11:10:48.388Z,3.40
2024-01-15T11:13:34.840Z,3.57
2024-01-15T11:16:10.586Z,3.50
2024-01-15T11:18:42.355Z,3.90
2024-01-15T11:21:18.694Z,3.73
2024-01-15T11:24:00.594Z,4.03
2024-01-15T11:26:55.574Z,3.90
2024-01-15T11:29:30.892Z,3.57
2024-01-15T11:32:02.274Z,3.70
2024-01-15T11:35:04.762Z,3.77
2024-01-15T11:37:52.465Z,3.20
2024-01-15T11:40:34.160Z,3.80
2024-01-15T11:43:01.748Z,3.80
2024-01-15T11:45:29.543Z,3.70
2024-01-15T11:48:19.677Z,3.47
2024-01-15T11:50:51.108Z,3.27
2024-01-15T11:53:37.548Z,3.40
2024-01-15T11:56:16.851Z,3.33
2024-01-15T11:58:45.145Z,3.23
2024-01-15T12:01:13.189Z,3.27
2024-01-15T12:03:41.129Z,2.90
2024-01-15T12:06:10.153Z,3.40
2024-01-15T12:08:38.272Z,3.50
2024-01-15T12:11:14.142Z,3.57
2024-01-15T12:13:41.529Z,3.67
2024-01-15T12:16:09.302Z,3.10
2024-01-15T12:18:37.242Z,3.70
2024-01-15T12:21:05.839Z,3.13
2024-01-15T12:23:33.158Z,3.70
2024-01-15T12:26:00.878Z,3.67
2024-01-15T12:28:29.846Z,3.43
2024-01-15T12:30:57.969Z,3.10
2024-01-15T12:33:25.522Z,3.57
2024-01-15T12:35:55.916Z,2.90
2024-01-15T12:38:23.283Z,3.73
2024-01-15T12:40:51.054Z,3.80
2024-01-15T12:43:19.273Z,4.10
2024-01-15T12:45:47.739Z,3.63
2024-01-15T12:48:19.250Z,3.60
2024-01-15T12:50:48.586Z,3.30
2024-01-15T12:53:16.716Z,3.90
2024-01-15T12:55:44.406Z,3.87
2024-01-15T12:58:21.380Z,3.80
2024-01-15T13:00:49.322Z,3.03
2024-01-15T13:03:16.975Z,3.40
2024-01-15T13:05:44.639Z,3.70
2024-01-15T13:08:12.340Z,3.50
2024-01-15T13:10:39.882Z,4.17
2024-01-15T13:13:07.486Z,3.83
2024-01-15T13:15:35.030Z,3.73
2024-01-15T13:18:02.727Z,3.80
2024-01-15T13:20:30.396Z,3.37
2024-01-15T13:22:59.702Z,3.80
2024-01-15T13:25:27.383Z,3.50
2024-01-15T13:27:54.960Z,3.70
2024-01-15T13:30:22.817Z,3.43
2024-01-15T13:32:50.431Z,3.90
2024-01-15T13:35:17.922Z,3.63
2024-01-15T13:37:45.569Z,3.43
2024-01-15T13:40:18.130Z,3.80
2024-01-15T13:42:47.093Z,3.90
2024-01-15T13:45:18.342Z,3.87
2024-01-15T13:47:46.287Z,3.77
2024-01-15T13:50:14.055Z,3.37
2024-01-15T13:52:41.679Z,3.70
2024-01-15T13:55:10.468Z,3.77
2024-01-15T13:57:38.510Z,4.03
2024-01-15T14:00:11.185Z,4.00
2024-01-15T14:02:39.273Z,4.30
2024-01-15T14:05:07.694Z,4.03
2024-01-15T14:07:35.203Z,4.17
2024-01-15T14:10:03.106Z,4.17
2024-01-15T14:12:30.656Z,4.27
2024-01-15T14:14:58.153Z,3.50
2024-01-15T14:17:25.718Z,3.63
2024-01-15T14:19:55.512Z,3.50
2024-01-15T14:22:24.432Z,3.50
2024-01-15T14:24:52.500Z,3.70
2024-01-15T14:27:20.087Z,3.57
2024-01-15T14:29:47.633Z,4.07
2024-01-15T14:32:15.686Z,3.50
2024-01-15T14:34:43.340Z,3.63
2024-01-15T14:37:11.141Z,4.00
2024-01-15T14:39:38.728Z,3.67
2024-01-15T14:42:06.273Z,3.67
2024-01-15T14:44:36.288Z,4.00
2024-01-15T14:47:04.566Z,3.90
2024-01-15T14:49:33.057Z,4.03
2024-01-15T14:52:00.976Z,3.57
2024-01-15T14:54:28.520Z,3.60
2024-01-15T14:56:58.151Z,3.83
2024-01-15T14:59:25.733Z,3.70
2024-01-15T15:01:55.216Z,3.40
2024-01-15T15:04:22.943Z,3.43
2024-01-15T15:06:51.413Z,3.37
2024-01-15T15:09:19.096Z,3.60
2024-01-15T15:11:46.636Z,3.60
2024-01-15T15:14:14.186Z,3.07
2024-01-15T15:16:41.807Z,3.20
2024-01-15T15:19:09.407Z,3.50
2024-01-15T15:21:37.032Z,3.37
2024-01-15T15:24:04.692Z,3.83
2024-01-15T15:26:32.197Z,3.10
2024-01-15T15:29:00.020Z,3.10
2024-01-15T15:31:27.764Z,2.90
2024-01-15T15:33:55.470Z,3.17
2024-01-15T15:36:23.274Z,3.27
2024-01-15T15:38:51.106Z,3.37
2024-01-15T15:41:18.601Z,3.30
2024-01-15T15:43:46.132Z,3.00
2024-01-15T15:46:13.610Z,2.87
2024-01-15T15:48:41.308Z,3.00
2024-01-15T15:51:09.001Z,2.90
2024-01-15T15:53:36.551Z,3.40
2024-01-15T15:56:04.614Z,2.97
2024-01-15T15:58:32.248Z,3.20
2024-01-15T16:01:00.500Z,3.00
2024-01-15T16:03:28.131Z,2.83
2024-01-15T16:05:55.745Z,3.20
2024-01-15T16:08:23.451Z,3.10
2024-01-15T16:10:53.197Z,3.47
2024-01-15T16:13:21.392Z,2.87
2024-01-15T16:15:49.591Z,3.17
2024-01-15T16:23:20.327Z,3.30
2024-01-15T16:23:34.948Z,3.30
2024-01-15T16:24:12.396Z,3.27
2024-01-15T16:26:43.160Z,3.17
2024-01-15T16:29:11.087Z,3.93
2024-01-15T16:31:39.498Z,3.30
2024-01-15T16:34:09.722Z,3.40
2024-01-15T16:36:39.612Z,3.70
2024-01-15T16:39:07.375Z,3.20
2024-01-15T16:41:35.018Z,4.30
2024-01-15T16:44:02.613Z,3.90
2024-01-15T16:46:30.252Z,3.90
2024-01-15T16:48:58.058Z,3.83
2024-01-15T16:51:25.619Z,3.60
2024-01-15T16:53:53.119Z,3.90
2024-01-15T16:56:21.582Z,4.37
2024-01-15T16:58:49.062Z,4.70
2024-01-15T17:01:16.598Z,4.50
2024-01-15T17:03:44.528Z,3.77
2024-01-15T17:06:12.084Z,4.87
2024-01-15T17:08:39.702Z,3.77
2024-01-15T17:11:07.417Z,3.67
2024-01-15T17:13:35.568Z,3.90
2024-01-15T17:16:04.634Z,3.50
2024-01-15T17:18:32.409Z,3.70
2024-01-15T17:21:00.041Z,3.73
2024-01-15T17:23:27.716Z,4.00
2024-01-15T17:25:55.271Z,4.47
2024-01-15T17:28:24.568Z,4.23
2024-01-15T17:30:52.346Z,4.00
2024-01-15T17:33:20.359Z,3.60
2024-01-15T17:35:58.443Z,4.00
2024-01-15T17:38:26.439Z,4.20
2024-01-15T17:40:54.169Z,4.03
2024-01-15T17:43:21.852Z,4.00
2024-01-15T17:45:49.947Z,3.57
2024-01-15T17:48:17.957Z,4.07
2024-01-15T17:50:46.625Z,4.20
2024-01-15T17:53:14.936Z,4.23
2024-01-15T17:55:42.772Z,3.97
2024-01-15T17:58:10.418Z,3.77
2024-01-15T18:00:38.150Z,4.00
2024-01-15T18:03:05.990Z,3.83
2024-01-15T18:05:33.621Z,4.40
2024-01-15T18:08:01.283Z,4.80
2024-01-15T18:10:29.023Z,3.87
2024-01-15T18:12:56.565Z,4.20
2024-01-15T18:15:24.223Z,4.20
2024-01-15T18:17:52.148Z,4.20
2024-01-15T18:20:22.571Z,4.40
2024-01-15T18:22:51.666Z,4.37
2024-01-15T18:25:20.081Z,4.50
2024-01-15T18:27:47.609Z,4.30
2024-01-15T18:30:15.681Z,4.43
2024-01-15T18:32:43.490Z,3.83
2024-01-15T18:35:11.273Z,4.20
2024-01-15T18:37:38.842Z,4.80
2024-01-15T18:40:07.749Z,4.20
2024-01-15T18:42:35.833Z,4.47
2024-01-15T18:45:04.866Z,4.17
2024-01-15T18:47:32.628Z,4.10
2024-01-15T18:50:00.391Z,4.40
2024-01-15T18:52:28.154Z,4.30
2024-01-15T18:54:57.358Z,4.63
2024-01-15T18:57:24.906Z,4.53
2024-01-15T18:59:52.566Z,4.30
2024-01-15T19:02:20.686Z,4.63
2024-01-15T19:04:48.334Z,4.50
2024-01-15T19:07:15.933Z,4.60
2024-01-15T19:09:43.663Z,5.17
2024-01-15T19:12:11.212Z,4.87
2024-01-15T19:14:38.840Z,4.87
2024-01-15T19:17:06.393Z,5.07
2024-01-15T19:19:38.500Z,4.87
2024-01-15T19:22:06.119Z,4.37
2024-01-15T19:24:33.839Z,4.90
2024-01-15T19:27:01.555Z,4.73
2024-01-15T19:29:29.203Z,4.77
2024-01-15T19:31:58.864Z,4.90
2024-01-15T19:34:26.516Z,4.60
2024-01-15T19:36:55.152Z,4.67
2024-01-15T19:39:22.893Z,4.63
2024-01-15T19:41:52.023Z,4.70
2024-01-15T19:44:19.620Z,4.37
2024-01-15T19:46:47.175Z,4.40
2024-01-15T19:49:14.716Z,4.67
2024-01-15T19:51:42.413Z,4.50
2024-01-15T19:54:09.897Z,4.60
2024-01-15T19:56:39.296Z,4.50
2024-01-15T19:59:07.423Z,4.10
2024-01-15T20:01:35.051Z,4.50
2024-01-15T20:04:05.057Z,4.57
2024-01-15T20:06:32.951Z,4.47
2024-01-15T20:09:00.573Z,4.47
2024-01-15T20:11:28.206Z,3.93
2024-01-15T20:13:55.759Z,4.77
2024-01-15T20:16:25.440Z,4.50
2024-01-15T20:18:53.189Z,4.80
2024-01-15T20:21:20.914Z,4.80
2024-01-15T20:23:55.166Z,4.67
2024-01-15T20:26:26.475Z,4.83
2024-01-15T20:28:55.832Z,4.83
2024-01-15T20:31:23.450Z,4.90
2024-01-15T20:33:51.636Z,5.33
2024-01-15T20:36:19.315Z,5.23
2024-01-15T20:38:47.331Z,5.40
2024-01-15T20:41:17.491Z,5.43
2024-01-15T20:43:45.349Z,5.40
2024-01-15T20:46:12.919Z,5.50
2024-01-15T20:48:40.772Z,5.07
2024-01-15T20:51:08.600Z,5.10
2024-01-15T20:53:36.132Z,5.10
2024-01-15T20:56:03.810Z,6.00
2024-01-15T20:58:31.509Z,5.17
2024-01-15T21:00:59.666Z,5.70
2024-01-15T21:03:27.511Z,6.20
2024-01-15T21:05:55.243Z,5.10
2024-01-15T21:08:23.012Z,5.30
2024-01-15T21:10:50.980Z,5.27
2024-01-15T21:13:19.512Z,5.50
2024-01-15T21:15:48.340Z,5.40
2024-01-15T21:18:18.267Z,5.50
2024-01-15T21:20:46.203Z,5.30
2024-01-15T21:23:13.795Z,5.43
2024-01-15T21:25:41.863Z,5.37
2024-01-15T21:28:09.455Z,5.60
2024-01-15T21:30:37.162Z,6.23
2024-01-15T21:33:06.508Z,5.97
2024-01-15T21:35:34.386Z,5.90
2024-01-15T21:38:02.121Z,6.20
2024-01-15T21:40:29.855Z,5.87
2024-01-15T21:42:57.697Z,6.10
2024-01-15T21:45:25.255Z,6.63
2024-01-15T21:47:52.942Z,6.37
2024-01-15T21:50:20.602Z,6.97
2024-01-15T21:52:48.112Z,6.57
2024-01-15T21:55:19.000Z,6.47
2024-01-15T21:57:46.718Z,5.87
2024-01-15T22:00:16.816Z,6.27
2024-01-15T22:02:46.676Z,6.13
2024-01-15T22:05:14.740Z,6.10
2024-01-15T22:07:43.315Z,6.37
2024-01-15T22:10:11.646Z,6.93
2024-01-15T22:12:39.160Z,6.53
2024-01-15T22:15:07.278Z,6.70
2024-01-15T22:17:34.850Z,5.97
2024-01-15T22:20:02.520Z,6.33
2024-01-15T22:22:30.282Z,6.50
2024-01-15T22:24:57.868Z,6.30
2024-01-15T22:27:25.561Z,5.83
2024-01-15T22:29:54.806Z,6.17
2024-01-15T22:32:22.540Z,6.07
2024-01-15T22:34:50.707Z,5.70
2024-01-15T22:37:18.639Z,5.87
2024-01-15T22:39:46.573Z,6.13
2024-01-15T22:42:14.441Z,5.10
2024-01-15T22:44:42.146Z,6.77
2024-01-15T22:47:10.151Z,6.47
2024-01-15T22:49:38.052Z,6.77
2024-01-15T22:52:06.353Z,5.97
2024-01-15T22:54:34.184Z,6.60
2024-01-15T22:57:01.863Z,6.70
2024-01-15T22:59:29.463Z,6.93
2024-01-15T23:01:57.960Z,7.10
2024-01-15T23:04:25.615Z,7.00
2024-01-15T23:06:53.980Z,6.20
2024-01-15T23:09:22.245Z,6.30
2024-01-15T23:11:49.871Z,6.93
2024-01-15T23:14:17.565Z,8.13
2024-01-15T23:16:45.091Z,2.73
2024-01-15T23:19:12.595Z,2.03
2024-01-15T23:21:40.251Z,1.73
2024-01-15T23:24:09.115Z,1.37
2024-01-15T23:26:36.649Z,1.70
2024-01-15T23:29:04.798Z,1.83
2024-01-15T23:31:32.362Z,1.70
2024-01-15T23:34:00.119Z,1.70
2024-01-15T23:36:28.058Z,2.30
2024-01-15T23:38:55.955Z,1.70
2024-01-15T23:41:24.006Z,2.37
2024-01-15T23:43:51.732Z,1.93
2024-01-15T23:46:23.211Z,1.77
2024-01-15T23:48:51.545Z,1.90
2024-01-15T23:51:19.119Z,3.47
2024-01-15T23:53:47.047Z,2.47
2024-01-15T23:56:15.236Z,2.00
2024-01-15T23:58:42.857Z,2.90
